Bunun Infinity — 3FPZ5 — position and weather

sailwx.info

Track history (hours):
 
Tides and Currents Weather Stations Pressure Air Temp Water Temp Dewpoint Dewpoint Depression Visibility Wind Speed Wind Dir Waves Ship Positions

Bunun Infinity

Last reported at 2018-Jun-23 11:22 UTC. Time now 2018-Jun-24 01:12 UTC.
Position N 29°44' W 095°16'.

Length 179 m; draft 7.9 m.

Type: Cargo ship. MMSI: 355825000.

Date/timePositionNaut miles runAvg speedWind from/ knotsBaromVisibWave heightAir tempDewpointWater temp
2018-Jun-23 11:22N 29°44' W 095°16'0 0.0
2018-Jun-23 09:16N 29°44' W 095°16'0 0.0
2018-Jun-23 08:58N 29°44' W 095°16'0 0.0
2018-Jun-23 08:25N 29°44' W 095°16'0 0.0
2018-Jun-23 07:37N 29°44' W 095°16'0 0.0
2018-Jun-23 07:25N 29°44' W 095°16'0 0.0
2018-Jun-23 06:46N 29°44' W 095°16'0 0.0
2018-Jun-23 06:28N 29°44' W 095°16'0 0.0
2018-Jun-23 05:58N 29°44' W 095°16'0 0.0
2018-Jun-23 05:25N 29°44' W 095°16'0 0.0
2018-Jun-23 04:46N 29°44' W 095°16'0 0.0
2018-Jun-23 04:28N 29°44' W 095°16'0 0.0
2018-Jun-23 03:58N 29°44' W 095°16'0 0.0
2018-Jun-23 02:28N 29°44' W 095°16'0 0.0
2018-Jun-23 01:40N 29°44' W 095°16'0 0.0
2018-Jun-23 01:28N 29°44' W 095°16'8 0.7
2018-Jun-22 14:30N 29°45' W 095°06'3 5.0
2018-Jun-22 13:59N 29°44' W 095°03'4 7.4
2018-Jun-22 13:30N 29°42' W 095°00'510.1
2018-Jun-22 12:59N 29°37' W 094°58'612.0
2018-Jun-22 12:30N 29°33' W 094°54'713.0
2018-Jun-22 12:00N 29°27' W 094°51'713.4
2018-Jun-22 11:30N 29°21' W 094°47'612.7
2018-Jun-22 11:00N 29°20' W 094°40'5 8.7
2018-Jun-22 10:28N 29°17' W 094°35'13 4.8
2018-Jun-22 07:41N 29°09' W 094°23'0 0.9
2018-Jun-22 07:17N 29°08' W 094°24'0 0.7
2018-Jun-22 06:51N 29°08' W 094°24'0 0.2
2018-Jun-22 06:30N 29°08' W 094°24'2 3.7
2018-Jun-22 05:54N 29°10' W 094°25'2 3.9
2018-Jun-22 05:25N 29°09' W 094°23'612.6
2018-Jun-22 04:54N 29°05' W 094°17'512.3
2018-Jun-22 04:29N 29°03' W 094°12'1412.3
2018-Jun-22 03:23N 28°55' W 093°59'612.3
2018-Jun-22 02:52N 28°51' W 093°53'412.3
2018-Jun-22 02:30N 28°49' W 093°49'1212.4
2018-Jun-22 01:32N 28°42' W 093°38'112.7
2018-Jun-22 01:28N 28°42' W 093°37'612.7
2018-Jun-22 01:00N 28°38' W 093°32'612.6
2018-Jun-22 00:30N 28°34' W 093°26'612.9
2018-Jun-22 00:00N 28°30' W 093°20'612.5
2018-Jun-21 23:30N 28°27' W 093°14'712.1
2018-Jun-21 22:55N 28°22' W 093°08'1312.2
2018-Jun-21 21:49N 28°15' W 092°55'412.3
2018-Jun-21 21:30N 28°12' W 092°52'9412.5
2018-Jun-21 13:58N 27°04' W 091°39'  
2018-Jun-17 16:36N 09°30' W 079°56'113.0
2018-Jun-17 16:29N 09°29' W 079°55'611.8
2018-Jun-17 16:01N 09°23' W 079°55'4 7.3
2018-Jun-17 15:30N 09°20' W 079°55'3 6.2
2018-Jun-17 15:00N 09°17' W 079°55'0 0.6
2018-Jun-17 14:30N 09°16' W 079°55'0 0.4
2018-Jun-17 13:58N 09°16' W 079°55'0 0.5
2018-Jun-17 13:25N 09°16' W 079°55'1 3.1
2018-Jun-17 13:00N 09°15' W 079°55'3 6.4
2018-Jun-17 12:30N 09°12' W 079°54'  
Track history (hours):
 
Tides and Currents Weather Stations Pressure Air Temp Water Temp Dewpoint Dewpoint Depression Visibility Wind Speed Wind Dir Waves Ship Positions

Bunun Infinity

Last reported at 2018-Jun-23 11:22 UTC. Time now 2018-Jun-24 01:12 UTC.
Position N 29°44' W 095°16'.

Length 179 m; draft 7.9 m.

Type: Cargo ship. MMSI: 355825000.

Date/timePositionNaut miles runAvg speedWind from/ knotsBaromVisibWave heightAir tempDewpointWater temp
2018-Jun-23 11:22N 29°44' W 095°16'0 0.0
2018-Jun-23 09:16N 29°44' W 095°16'0 0.0
2018-Jun-23 08:58N 29°44' W 095°16'0 0.0
2018-Jun-23 08:25N 29°44' W 095°16'0 0.0
2018-Jun-23 07:37N 29°44' W 095°16'0 0.0
2018-Jun-23 07:25N 29°44' W 095°16'0 0.0
2018-Jun-23 06:46N 29°44' W 095°16'0 0.0
2018-Jun-23 06:28N 29°44' W 095°16'0 0.0
2018-Jun-23 05:58N 29°44' W 095°16'0 0.0
2018-Jun-23 05:25N 29°44' W 095°16'0 0.0
2018-Jun-23 04:46N 29°44' W 095°16'0 0.0
2018-Jun-23 04:28N 29°44' W 095°16'0 0.0
2018-Jun-23 03:58N 29°44' W 095°16'0 0.0
2018-Jun-23 02:28N 29°44' W 095°16'0 0.0
2018-Jun-23 01:40N 29°44' W 095°16'0 0.0
2018-Jun-23 01:28N 29°44' W 095°16'8 0.7
2018-Jun-22 14:30N 29°45' W 095°06'3 5.0
2018-Jun-22 13:59N 29°44' W 095°03'4 7.4
2018-Jun-22 13:30N 29°42' W 095°00'510.1
2018-Jun-22 12:59N 29°37' W 094°58'612.0
2018-Jun-22 12:30N 29°33' W 094°54'713.0
2018-Jun-22 12:00N 29°27' W 094°51'713.4
2018-Jun-22 11:30N 29°21' W 094°47'612.7
2018-Jun-22 11:00N 29°20' W 094°40'5 8.7
2018-Jun-22 10:28N 29°17' W 094°35'13 4.8
2018-Jun-22 07:41N 29°09' W 094°23'0 0.9
2018-Jun-22 07:17N 29°08' W 094°24'0 0.7
2018-Jun-22 06:51N 29°08' W 094°24'0 0.2
2018-Jun-22 06:30N 29°08' W 094°24'2 3.7
2018-Jun-22 05:54N 29°10' W 094°25'2 3.9
2018-Jun-22 05:25N 29°09' W 094°23'612.6
2018-Jun-22 04:54N 29°05' W 094°17'512.3
2018-Jun-22 04:29N 29°03' W 094°12'1412.3
2018-Jun-22 03:23N 28°55' W 093°59'612.3
2018-Jun-22 02:52N 28°51' W 093°53'412.3
2018-Jun-22 02:30N 28°49' W 093°49'1212.4
2018-Jun-22 01:32N 28°42' W 093°38'112.7
2018-Jun-22 01:28N 28°42' W 093°37'612.7
2018-Jun-22 01:00N 28°38' W 093°32'612.6
2018-Jun-22 00:30N 28°34' W 093°26'612.9
2018-Jun-22 00:00N 28°30' W 093°20'612.5
2018-Jun-21 23:30N 28°27' W 093°14'712.1
2018-Jun-21 22:55N 28°22' W 093°08'1312.2
2018-Jun-21 21:49N 28°15' W 092°55'412.3
2018-Jun-21 21:30N 28°12' W 092°52'9412.5
2018-Jun-21 13:58N 27°04' W 091°39'  
2018-Jun-17 16:36N 09°30' W 079°56'113.0
2018-Jun-17 16:29N 09°29' W 079°55'611.8
2018-Jun-17 16:01N 09°23' W 079°55'4 7.3
2018-Jun-17 15:30N 09°20' W 079°55'3 6.2
2018-Jun-17 15:00N 09°17' W 079°55'0 0.6
2018-Jun-17 14:30N 09°16' W 079°55'0 0.4
2018-Jun-17 13:58N 09°16' W 079°55'0 0.5
2018-Jun-17 13:25N 09°16' W 079°55'1 3.1
2018-Jun-17 13:00N 09°15' W 079°55'3 6.4
2018-Jun-17 12:30N 09°12' W 079°54'  

Dump ship's entire track history